Time;durP1;ratioP1;P1;durP2;ratioP2;P2;SDS_P1;SDS_P2;PMS_P1;PMS_P2;Temp;Humidity;BMP_temperature;BMP_pressure;BME280_temperature;BME280_humidity;BME280_pressure;Samples;Min_cycle;Max_cycle;Signal;HPM_P1;HPM_P2
2021/11/05 00:01:12;;;;;;;5.68;4.40;;;6.50;27.60;;;;;;5121410;27;20086;-70
2021/11/05 00:03:40;;;;;;;6.40;4.20;;;6.50;28.70;;;;;;5122231;27;20042;-70
2021/11/05 00:06:12;;;;;;;6.25;4.93;;;6.50;30.50;;;;;;5100155;28;20046;-70
2021/11/05 00:08:40;;;;;;;5.30;4.80;;;6.50;30.60;;;;;;5115510;27;20092;-70
2021/11/05 00:11:13;;;;;;;8.20;5.22;;;6.50;30.70;;;;;;5120755;27;20506;-70
2021/11/05 00:13:41;;;;;;;6.00;4.70;;;6.50;30.10;;;;;;5095268;28;20063;-70
2021/11/05 00:16:09;;;;;;;7.75;5.20;;;6.50;31.30;;;;;;5115466;27;20112;-70
2021/11/05 00:18:40;;;;;;;6.15;4.47;;;6.50;30.80;;;;;;5123819;27;20043;-70
2021/11/05 00:21:08;;;;;;;6.88;5.00;;;6.40;32.50;;;;;;5103659;27;20118;-68
2021/11/05 00:23:37;;;;;;;6.57;4.53;;;6.40;33.20;;;;;;5120876;27;20074;-70
2021/11/05 00:26:05;;;;;;;6.65;5.00;;;6.40;33.20;;;;;;5126347;27;20529;-69
2021/11/05 00:28:40;;;;;;;6.93;5.30;;;6.40;35.00;;;;;;5121222;27;20054;-69
2021/11/05 00:31:13;;;;;;;6.80;5.00;;;6.40;35.00;;;;;;5129821;27;20042;-70
2021/11/05 00:33:42;;;;;;;8.35;5.53;;;6.40;33.50;;;;;;5122291;27;20101;-70
2021/11/05 00:36:14;;;;;;;7.00;5.35;;;6.40;34.30;;;;;;5100616;27;20043;-70
2021/11/05 00:38:47;;;;;;;7.05;5.15;;;6.40;34.20;;;;;;5127775;27;20063;-69
2021/11/05 00:41:17;;;;;;;6.22;5.30;;;6.40;35.00;;;;;;5122940;27;20093;-69
2021/11/05 00:43:52;;;;;;;7.35;5.15;;;6.40;35.00;;;;;;5118725;27;20074;-69
2021/11/05 00:46:24;;;;;;;7.25;5.28;;;6.40;35.00;;;;;;5126462;27;20502;-68
2021/11/05 00:48:52;;;;;;;9.23;5.22;;;6.40;35.00;;;;;;5123428;27;20043;-69
2021/11/05 00:51:20;;;;;;;6.10;4.72;;;6.40;34.30;;;;;;5127651;27;20062;-69
2021/11/05 00:53:48;;;;;;;6.95;4.88;;;6.40;35.00;;;;;;5125085;27;20417;-69
2021/11/05 00:56:17;;;;;;;6.05;4.95;;;6.40;34.50;;;;;;5120352;27;20502;-69
2021/11/05 00:58:45;;;;;;;6.55;4.80;;;6.50;33.80;;;;;;5122460;27;20491;-69
2021/11/05 01:01:14;;;;;;;7.30;4.63;;;6.40;32.80;;;;;;5124450;27;20047;-69
2021/11/05 01:03:45;;;;;;;6.53;4.95;;;6.50;33.40;;;;;;5119850;27;20092;-73
2021/11/05 01:06:17;;;;;;;7.78;5.22;;;6.40;32.90;;;;;;5124008;27;20051;-69
2021/11/05 01:08:45;;;;;;;5.97;5.00;;;6.40;33.80;;;;;;5085104;27;20046;-70
2021/11/05 01:11:15;;;;;;;8.18;4.85;;;6.50;33.80;;;;;;5119937;27;20043;-70
2021/11/05 01:13:44;;;;;;;6.18;5.00;;;6.50;33.70;;;;;;5120817;27;20039;-70
2021/11/05 01:16:16;;;;;;;8.63;5.60;;;6.40;35.00;;;;;;5115852;27;20050;-71
2021/11/05 01:18:45;;;;;;;8.38;5.72;;;6.40;35.60;;;;;;5123498;27;20044;-72
2021/11/05 01:21:13;;;;;;;6.97;5.40;;;6.40;36.70;;;;;;5122687;27;20416;-72
2021/11/05 01:23:44;;;;;;;8.48;5.63;;;6.30;38.60;;;;;;5120957;27;20044;-72
2021/11/05 01:26:12;;;;;;;7.97;5.57;;;6.30;41.40;;;;;;5121433;27;20122;-72
2021/11/05 01:28:41;;;;;;;8.43;5.88;;;6.20;43.00;;;;;;5130450;27;20035;-72
2021/11/05 01:31:09;;;;;;;7.45;5.85;;;6.20;42.50;;;;;;5117696;27;20491;-72
2021/11/05 01:33:42;;;;;;;7.32;5.55;;;6.20;42.50;;;;;;5120810;27;20092;-72
2021/11/05 01:36:12;;;;;;;7.85;5.97;;;6.30;42.30;;;;;;5104432;27;20047;-72
2021/11/05 01:38:41;;;;;;;9.57;6.20;;;6.30;43.20;;;;;;5116663;27;20410;-72
2021/11/05 01:41:14;;;;;;;8.15;5.80;;;6.30;43.30;;;;;;5123797;27;20036;-71
2021/11/05 01:43:47;;;;;;;9.27;5.97;;;6.30;42.80;;;;;;5118937;27;20048;-72
2021/11/05 01:46:18;;;;;;;6.75;5.32;;;6.30;43.10;;;;;;5109717;27;20048;-72
2021/11/05 01:48:48;;;;;;;7.43;5.50;;;6.20;43.20;;;;;;5118434;27;20043;-72
2021/11/05 01:51:17;;;;;;;7.13;5.43;;;6.20;43.20;;;;;;5118715;27;20051;-72
2021/11/05 01:53:48;;;;;;;8.63;6.68;;;6.30;43.30;;;;;;5097966;27;20131;-72
2021/11/05 01:56:17;;;;;;;7.55;5.50;;;6.30;43.30;;;;;;5124924;27;20049;-72
2021/11/05 01:58:45;;;;;;;7.70;5.85;;;6.30;43.30;;;;;;5119162;27;20087;-71
2021/11/05 02:01:14;;;;;;;9.95;6.25;;;6.20;43.20;;;;;;5120811;27;20503;-72
2021/11/05 02:03:42;;;;;;;9.07;7.00;;;6.30;43.90;;;;;;5122337;27;20047;-72
2021/11/05 02:06:12;;;;;;;7.97;5.88;;;6.20;44.40;;;;;;5087260;27;20077;-72
2021/11/05 02:08:41;;;;;;;7.90;5.95;;;6.20;45.40;;;;;;5124207;27;20126;-72
2021/11/05 02:11:10;;;;;;;7.20;5.85;;;6.10;45.40;;;;;;5119461;27;20991;-72
2021/11/05 02:13:44;;;;;;;9.38;6.22;;;6.20;46.50;;;;;;5116504;27;20047;-73
2021/11/05 02:16:15;;;;;;;11.02;6.32;;;6.20;46.70;;;;;;5120062;27;20551;-72
2021/11/05 02:18:47;;;;;;;7.40;6.13;;;6.10;47.00;;;;;;5121242;27;20406;-72
2021/11/05 02:21:22;;;;;;;7.05;5.88;;;6.10;47.10;;;;;;5086655;27;20039;-72
2021/11/05 02:23:54;;;;;;;6.75;5.55;;;6.10;47.20;;;;;;5121474;27;20054;-72
2021/11/05 02:26:26;;;;;;;7.10;4.93;;;6.20;46.50;;;;;;5117625;27;20067;-72
2021/11/05 02:28:54;;;;;;;8.05;5.60;;;6.10;46.00;;;;;;5118027;27;20725;-72
2021/11/05 02:31:24;;;;;;;7.70;5.15;;;6.20;46.20;;;;;;5106497;27;20067;-72
2021/11/05 02:33:52;;;;;;;7.25;5.18;;;6.20;45.50;;;;;;5115464;27;20039;-72
2021/11/05 02:36:22;;;;;;;7.38;5.00;;;6.20;45.40;;;;;;5120491;27;20067;-72
2021/11/05 02:38:55;;;;;;;7.35;5.10;;;6.20;45.60;;;;;;5117238;27;20046;-72
2021/11/05 02:41:23;;;;;;;11.35;5.63;;;6.20;45.40;;;;;;5116365;27;20051;-72
2021/11/05 02:43:52;;;;;;;9.10;5.68;;;6.20;45.80;;;;;;5125066;27;20053;-72
2021/11/05 02:46:22;;;;;;;7.15;5.55;;;6.20;45.70;;;;;;5116724;27;20080;-72
2021/11/05 02:48:56;;;;;;;7.53;5.43;;;6.20;46.30;;;;;;5117464;27;20510;-72
2021/11/05 02:51:25;;;;;;;8.38;5.00;;;6.20;45.30;;;;;;5125900;27;20040;-72
2021/11/05 02:53:56;;;;;;;7.82;5.10;;;6.20;45.30;;;;;;5118189;27;20043;-72
2021/11/05 02:56:26;;;;;;;7.47;5.20;;;6.20;44.60;;;;;;5113199;27;20138;-72
2021/11/05 02:58:54;;;;;;;6.65;4.97;;;6.30;44.40;;;;;;5127024;27;20081;-72
2021/11/05 03:01:28;;;;;;;8.02;5.15;;;6.20;43.20;;;;;;5119848;27;20038;-72
2021/11/05 03:04:03;;;;;;;7.32;4.88;;;6.20;43.20;;;;;;5115714;27;20035;-72
2021/11/05 03:06:35;;;;;;;5.72;4.35;;;6.20;43.20;;;;;;5121036;27;20046;-73
2021/11/05 03:09:09;;;;;;;5.82;4.60;;;6.20;43.20;;;;;;5117419;27;20047;-72
2021/11/05 03:11:38;;;;;;;6.63;5.22;;;6.30;43.30;;;;;;5081625;27;20115;-73
2021/11/05 03:14:09;;;;;;;6.25;5.15;;;6.20;43.30;;;;;;5118026;27;20039;-72
2021/11/05 03:16:38;;;;;;;8.93;4.70;;;6.20;43.50;;;;;;5114031;27;20126;-73
2021/11/05 03:19:09;;;;;;;6.13;4.70;;;6.30;43.40;;;;;;5113458;27;20067;-72
2021/11/05 03:21:38;;;;;;;5.53;4.43;;;6.30;43.30;;;;;;5122139;27;20041;-73
2021/11/05 03:24:10;;;;;;;6.25;4.85;;;6.30;44.10;;;;;;5109906;27;20142;-73
2021/11/05 03:26:38;;;;;;;9.57;4.93;;;6.30;44.50;;;;;;5122437;27;20047;-72
2021/11/05 03:29:13;;;;;;;6.18;4.43;;;6.20;44.30;;;;;;5118420;27;20103;-73
2021/11/05 03:31:42;;;;;;;7.25;5.07;;;6.20;45.00;;;;;;5122278;27;20399;-73
2021/11/05 03:34:10;;;;;;;6.63;4.75;;;6.20;44.60;;;;;;5117446;27;20063;-72
2021/11/05 03:36:41;;;;;;;5.80;4.70;;;6.10;45.30;;;;;;5116757;27;20069;-72
2021/11/05 03:39:11;;;;;;;7.03;4.72;;;6.20;45.80;;;;;;5101977;27;20518;-72
2021/11/05 03:41:43;;;;;;;6.40;4.53;;;6.30;44.80;;;;;;5119956;27;20039;-72
2021/11/05 03:44:11;;;;;;;9.60;5.72;;;6.30;44.10;;;;;;5116247;27;20043;-72
2021/11/05 03:46:39;;;;;;;6.20;4.93;;;6.30;44.40;;;;;;5117732;27;20096;-73
2021/11/05 03:49:08;;;;;;;9.95;5.78;;;6.30;44.90;;;;;;5119262;27;20054;-73
2021/11/05 03:51:37;;;;;;;5.50;4.60;;;6.30;46.20;;;;;;5100911;28;20494;-72
2021/11/05 03:54:08;;;;;;;6.68;5.05;;;6.30;46.10;;;;;;5125273;27;20096;-72
2021/11/05 03:56:38;;;;;;;6.82;5.20;;;6.20;46.40;;;;;;5119308;27;20040;-73
2021/11/05 03:59:10;;;;;;;6.75;5.00;;;6.20;46.80;;;;;;5121674;27;20218;-73
2021/11/05 04:01:42;;;;;;;5.78;4.45;;;6.20;46.30;;;;;;5127494;27;20074;-73
2021/11/05 04:04:13;;;;;;;6.43;4.85;;;6.20;47.40;;;;;;5118704;27;20043;-73
2021/11/05 04:06:42;;;;;;;5.60;5.00;;;6.20;47.00;;;;;;5120471;27;20047;-72
2021/11/05 04:09:11;;;;;;;5.78;4.68;;;6.20;47.30;;;;;;5127495;27;20084;-73
2021/11/05 04:11:41;;;;;;;6.65;4.70;;;6.30;47.50;;;;;;5098409;27;20471;-71
2021/11/05 04:14:10;;;;;;;8.65;5.07;;;6.30;47.10;;;;;;5126414;27;20051;-72
2021/11/05 04:16:41;;;;;;;8.68;5.60;;;6.40;46.60;;;;;;5121929;27;20050;-71
2021/11/05 04:19:10;;;;;;;8.93;5.65;;;6.30;45.30;;;;;;5121713;27;20051;-71
2021/11/05 04:21:38;;;;;;;7.38;5.10;;;6.40;45.50;;;;;;5125767;27;20039;-71
2021/11/05 04:24:09;;;;;;;8.52;5.28;;;6.40;45.20;;;;;;5120448;27;20498;-71
2021/11/05 04:26:38;;;;;;;9.65;4.85;;;6.40;45.40;;;;;;5119809;27;20503;-71
2021/11/05 04:29:08;;;;;;;6.30;5.22;;;6.30;45.80;;;;;;5129360;27;20129;-71
2021/11/05 04:31:36;;;;;;;8.13;5.30;;;6.30;47.00;;;;;;5120966;27;20032;-71
2021/11/05 04:34:04;;;;;;;7.05;5.45;;;6.30;46.10;;;;;;5122597;27;20063;-71
2021/11/05 04:36:33;;;;;;;6.05;4.90;;;6.30;47.30;;;;;;5118354;27;20104;-71
2021/11/05 04:39:09;;;;;;;6.95;5.07;;;6.30;47.80;;;;;;5121697;27;20760;-71
2021/11/05 04:41:42;;;;;;;6.00;4.78;;;6.30;47.30;;;;;;5121080;27;20432;-72
2021/11/05 04:44:14;;;;;;;6.65;4.93;;;6.20;47.50;;;;;;5122564;27;20055;-72
2021/11/05 04:46:44;;;;;;;9.18;5.53;;;6.20;47.30;;;;;;5116017;27;20049;-71
2021/11/05 04:49:14;;;;;;;8.25;5.03;;;6.20;47.30;;;;;;5125132;27;20047;-72
2021/11/05 04:51:43;;;;;;;7.05;5.38;;;6.30;47.40;;;;;;5120914;27;20559;-72
2021/11/05 04:54:11;;;;;;;9.88;5.20;;;6.30;47.40;;;;;;5121912;27;20031;-72
2021/11/05 04:56:42;;;;;;;7.63;5.30;;;6.20;46.30;;;;;;5127314;27;20112;-72
2021/11/05 04:59:16;;;;;;;7.00;4.85;;;6.30;46.70;;;;;;5122365;27;20043;-71
2021/11/05 05:01:44;;;;;;;7.38;5.60;;;6.30;47.00;;;;;;5119019;27;20063;-72
2021/11/05 05:04:13;;;;;;;5.72;4.55;;;6.30;47.20;;;;;;5122485;27;20043;-72
2021/11/05 05:06:45;;;;;;;6.20;4.93;;;6.30;46.90;;;;;;5117108;27;20043;-72
2021/11/05 05:09:14;;;;;;;7.70;4.97;;;6.30;47.30;;;;;;5125805;27;20158;-72
2021/11/05 05:11:47;;;;;;;5.60;4.68;;;6.40;47.40;;;;;;5126115;27;20035;-72
2021/11/05 05:14:20;;;;;;;5.85;4.38;;;6.40;46.90;;;;;;5116534;27;20039;-70
2021/11/05 05:16:47;;;;;;;5.75;4.38;;;6.40;46.50;;;;;;5117863;27;20096;-72
2021/11/05 05:19:16;;;;;;;7.35;5.15;;;6.30;46.20;;;;;;5121399;27;20144;-72
2021/11/05 05:21:43;;;;;;;5.47;4.50;;;6.30;46.70;;;;;;5119092;27;20376;-72
2021/11/05 05:24:13;;;;;;;6.00;4.70;;;6.40;46.70;;;;;;5123786;27;20039;-71
2021/11/05 05:26:46;;;;;;;6.63;4.67;;;6.40;46.10;;;;;;5118802;27;20044;-72
2021/11/05 05:29:15;;;;;;;6.47;4.88;;;6.30;45.10;;;;;;5122751;27;20050;-72
2021/11/05 05:31:44;;;;;;;6.63;4.90;;;6.40;45.10;;;;;;5126749;27;20092;-72
2021/11/05 05:34:14;;;;;;;8.57;4.45;;;6.50;44.90;;;;;;5115775;27;20065;-72
2021/11/05 05:36:42;;;;;;;6.20;4.38;;;6.40;43.90;;;;;;5120377;27;20092;-72
2021/11/05 05:39:14;;;;;;;5.20;4.18;;;6.50;44.10;;;;;;5121995;27;20049;-72
2021/11/05 05:41:43;;;;;;;5.85;3.88;;;6.50;43.50;;;;;;5122762;27;20071;-72
2021/11/05 05:44:10;;;;;;;6.25;4.13;;;6.50;43.40;;;;;;5118018;27;20138;-72
2021/11/05 05:46:46;;;;;;;6.18;3.92;;;6.50;42.90;;;;;;5112562;27;20047;-72
2021/11/05 05:49:14;;;;;;;8.80;4.55;;;6.50;43.30;;;;;;5117351;27;20062;-72
2021/11/05 05:51:43;;;;;;;5.25;3.88;;;6.50;42.80;;;;;;5118218;27;20336;-72
2021/11/05 05:54:11;;;;;;;7.25;4.00;;;6.50;41.30;;;;;;5093805;27;20420;-72
2021/11/05 05:56:39;;;;;;;8.38;4.93;;;6.50;42.00;;;;;;5113247;27;20130;-72
2021/11/05 05:59:08;;;;;;;8.35;4.05;;;6.50;42.70;;;;;;5119029;27;20056;-72
2021/11/05 06:01:37;;;;;;;5.95;4.18;;;6.50;40.70;;;;;;5114635;27;20524;-70
2021/11/05 06:04:14;;;;;;;6.75;4.30;;;6.50;41.60;;;;;;5098753;27;20051;-72
2021/11/05 06:06:43;;;;;;;5.32;4.45;;;6.60;41.90;;;;;;5098263;27;20134;-72
2021/11/05 06:09:12;;;;;;;4.43;3.50;;;6.60;41.40;;;;;;5116817;27;20035;-72
2021/11/05 06:11:44;;;;;;;4.80;3.20;;;6.50;40.60;;;;;;5118538;27;20174;-71
2021/11/05 06:14:13;;;;;;;6.13;3.22;;;6.50;38.30;;;;;;5120955;27;20108;-72
2021/11/05 06:16:42;;;;;;;4.88;3.58;;;6.50;39.00;;;;;;5112938;27;20043;-72
2021/11/05 06:19:10;;;;;;;6.03;3.25;;;6.50;38.10;;;;;;5118707;27;20039;-71
2021/11/05 06:21:40;;;;;;;3.60;3.17;;;6.50;38.30;;;;;;5122364;27;20069;-71
2021/11/05 06:24:11;;;;;;;4.55;3.13;;;6.50;38.00;;;;;;5115197;27;20096;-72
2021/11/05 06:26:43;;;;;;;4.10;3.05;;;6.50;38.00;;;;;;5120720;27;20040;-71
2021/11/05 06:29:15;;;;;;;4.45;3.42;;;6.50;38.90;;;;;;5120530;27;20043;-71
2021/11/05 06:31:43;;;;;;;6.40;4.45;;;6.50;39.10;;;;;;5116240;27;20110;-72
2021/11/05 06:34:11;;;;;;;4.90;3.47;;;6.50;39.30;;;;;;5122886;27;20566;-71
2021/11/05 06:36:43;;;;;;;5.03;3.60;;;6.50;39.20;;;;;;5117572;27;20043;-71
2021/11/05 06:39:12;;;;;;;4.60;3.35;;;6.50;40.00;;;;;;5117374;27;20078;-71
2021/11/05 06:41:41;;;;;;;4.35;3.50;;;6.50;41.30;;;;;;5123836;27;20043;-71
2021/11/05 06:44:09;;;;;;;5.82;3.70;;;6.50;41.20;;;;;;5115554;27;20108;-71
2021/11/05 06:46:37;;;;;;;5.47;3.90;;;6.60;41.90;;;;;;5112032;27;20069;-71
2021/11/05 06:49:05;;;;;;;5.15;2.97;;;6.60;41.80;;;;;;5113221;27;20131;-72
2021/11/05 06:51:35;;;;;;;3.72;3.30;;;6.50;38.90;;;;;;5115505;27;20047;-72
2021/11/05 06:54:04;;;;;;;4.18;3.28;;;6.50;38.20;;;;;;5114526;27;20043;-72
2021/11/05 06:56:32;;;;;;;5.30;3.55;;;6.50;38.20;;;;;;5112342;27;20096;-72
2021/11/05 06:59:05;;;;;;;5.32;3.05;;;6.60;38.90;;;;;;5117446;27;20137;-71
2021/11/05 07:01:35;;;;;;;4.88;3.72;;;6.60;37.90;;;;;;5125349;27;20093;-71
2021/11/05 07:04:03;;;;;;;4.80;3.03;;;6.60;39.60;;;;;;5116031;27;20127;-72
2021/11/05 07:06:31;;;;;;;3.28;2.58;;;6.60;39.10;;;;;;5113579;27;20142;-72
2021/11/05 07:09:01;;;;;;;4.28;2.95;;;6.60;39.00;;;;;;5122069;27;20126;-71
2021/11/05 07:11:30;;;;;;;2.65;2.28;;;6.70;39.20;;;;;;5117263;27;20061;-71
2021/11/05 07:13:58;;;;;;;4.63;3.10;;;6.60;37.80;;;;;;5115025;27;20051;-70
2021/11/05 07:16:27;;;;;;;4.20;2.60;;;6.60;37.80;;;;;;5103100;27;20042;-70
2021/11/05 07:19:00;;;;;;;4.38;2.88;;;6.60;36.60;;;;;;5116941;27;20053;-70
2021/11/05 07:21:28;;;;;;;5.00;3.17;;;6.70;38.20;;;;;;5119524;27;20073;-70
2021/11/05 07:24:00;;;;;;;4.03;2.90;;;6.60;37.40;;;;;;5119706;27;20494;-71
2021/11/05 07:26:35;;;;;;;3.75;3.05;;;6.70;38.50;;;;;;5111667;27;20055;-72
2021/11/05 07:29:05;;;;;;;5.35;3.50;;;6.70;38.20;;;;;;5129270;27;20138;-69
2021/11/05 07:31:33;;;;;;;5.88;3.20;;;6.80;38.80;;;;;;5118510;27;20043;-72
2021/11/05 07:34:02;;;;;;;4.40;3.25;;;6.90;38.40;;;;;;5111823;27;20186;-70
2021/11/05 07:36:30;;;;;;;4.85;3.33;;;6.90;39.60;;;;;;5115406;27;20081;-72
2021/11/05 07:39:00;;;;;;;5.43;3.33;;;6.80;39.70;;;;;;5121065;27;20046;-71
2021/11/05 07:41:33;;;;;;;5.47;3.60;;;6.70;39.70;;;;;;5113410;27;20039;-72
2021/11/05 07:44:02;;;;;;;5.03;3.35;;;6.70;40.60;;;;;;5116517;28;20084;-72
2021/11/05 07:46:30;;;;;;;4.43;3.40;;;6.70;40.70;;;;;;5115839;28;20047;-72
2021/11/05 07:49:05;;;;;;;6.15;4.13;;;6.70;38.90;;;;;;5117686;27;20120;-71
2021/11/05 07:51:38;;;;;;;5.43;3.90;;;6.70;40.80;;;;;;5117682;28;20043;-71
2021/11/05 07:54:07;;;;;;;8.95;3.72;;;6.60;39.50;;;;;;5116193;27;20117;-71
2021/11/05 07:56:38;;;;;;;6.30;4.22;;;6.70;42.00;;;;;;5117683;27;20435;-71
2021/11/05 07:59:08;;;;;;;7.57;4.03;;;6.80;43.00;;;;;;5113072;28;20120;-72
2021/11/05 08:01:36;;;;;;;7.45;4.95;;;6.80;42.60;;;;;;5094139;28;20070;-72
2021/11/05 08:04:04;;;;;;;8.68;4.45;;;6.80;43.00;;;;;;5113633;27;20036;-72
2021/11/05 08:06:32;;;;;;;5.60;4.30;;;7.00;43.80;;;;;;5112032;28;20570;-73
2021/11/05 08:09:01;;;;;;;8.10;4.40;;;7.00;41.30;;;;;;5113714;27;20502;-70
2021/11/05 08:11:32;;;;;;;5.40;4.20;;;7.10;42.90;;;;;;5120845;27;20130;-72
2021/11/05 08:14:02;;;;;;;9.15;4.03;;;7.10;41.70;;;;;;5120193;27;20074;-72
2021/11/05 08:16:30;;;;;;;5.50;4.18;;;6.90;40.30;;;;;;5114482;27;20538;-73
2021/11/05 08:19:02;;;;;;;10.90;4.93;;;7.20;42.70;;;;;;5076924;27;20050;-71
2021/11/05 08:21:30;;;;;;;6.93;5.20;;;7.20;43.90;;;;;;5122440;28;20096;-72
2021/11/05 08:23:59;;;;;;;6.63;5.07;;;7.40;43.70;;;;;;5121185;27;20114;-72
2021/11/05 08:26:31;;;;;;;6.72;4.85;;;7.40;43.70;;;;;;5115250;27;20070;-71
2021/11/05 08:29:03;;;;;;;6.60;4.65;;;7.30;41.10;;;;;;5119216;27;20035;-71
2021/11/05 08:31:51;;;;;;;8.20;5.75;;;7.20;40.80;;;;;;5095723;28;20094;-71
2021/11/05 08:34:19;;;;;;;5.22;4.10;;;7.30;41.80;;;;;;5122317;27;20110;-72
2021/11/05 08:36:50;;;;;;;7.90;3.97;;;7.00;42.40;;;;;;5114902;27;20093;-72
2021/11/05 08:39:22;;;;;;;4.95;4.03;;;7.10;42.70;;;;;;5118095;27;20463;-72
2021/11/05 08:41:50;;;;;;;5.15;4.43;;;7.10;41.30;;;;;;5121033;27;20043;-72
2021/11/05 08:44:23;;;;;;;9.10;4.88;;;7.20;43.80;;;;;;5118705;27;20122;-70
2021/11/05 08:46:54;;;;;;;5.32;4.30;;;7.30;42.60;;;;;;5098502;27;20055;-72
2021/11/05 08:49:24;;;;;;;5.03;4.20;;;7.20;39.90;;;;;;5120330;27;20047;-72
2021/11/05 08:51:53;;;;;;;8.05;4.30;;;7.30;39.40;;;;;;5118105;27;20043;-73
2021/11/05 08:54:21;;;;;;;5.05;4.35;;;7.20;39.10;;;;;;5121505;27;20506;-73
2021/11/05 08:56:53;;;;;;;5.20;4.10;;;7.30;40.90;;;;;;5124538;27;20039;-72
2021/11/05 08:59:25;;;;;;;6.30;4.78;;;7.50;40.50;;;;;;5118074;27;20052;-72
2021/11/05 09:01:56;;;;;;;5.95;4.35;;;7.60;39.30;;;;;;5127711;27;20031;-72
2021/11/05 09:04:24;;;;;;;7.93;4.30;;;7.60;39.30;;;;;;5129130;27;20649;-71
2021/11/05 09:06:53;;;;;;;5.35;3.70;;;7.80;41.80;;;;;;5115580;27;20039;-72
2021/11/05 09:09:23;;;;;;;4.18;3.03;;;7.90;39.60;;;;;;5114899;27;20077;-71
2021/11/05 09:11:54;;;;;;;4.95;3.80;;;7.90;37.40;;;;;;5117800;27;20043;-71
2021/11/05 09:14:30;;;;;;;4.57;3.38;;;8.00;36.20;;;;;;5115611;27;20039;-72
2021/11/05 09:17:27;;;;;;;4.30;3.60;;;7.90;34.90;;;;;;5119690;27;20071;-72
2021/11/05 09:19:59;;;;;;;4.50;3.42;;;8.10;34.30;;;;;;5122459;27;20107;-72
2021/11/05 09:22:27;;;;;;;4.63;3.65;;;8.00;34.10;;;;;;5115445;27;20154;-72
2021/11/05 09:24:57;;;;;;;7.00;3.55;;;8.00;34.60;;;;;;5114949;27;20047;-72
2021/11/05 09:27:29;;;;;;;8.15;4.20;;;8.20;31.10;;;;;;5116565;27;20129;-72
2021/11/05 09:29:58;;;;;;;4.75;3.70;;;8.10;30.60;;;;;;5117457;27;20050;-73
2021/11/05 09:32:30;;;;;;;5.50;4.22;;;8.00;34.30;;;;;;5119937;27;20047;-72
2021/11/05 09:35:01;;;;;;;6.82;4.05;;;8.00;35.30;;;;;;5116073;27;20262;-72
2021/11/05 09:37:31;;;;;;;7.03;4.55;;;7.90;35.60;;;;;;5115787;27;20142;-72
2021/11/05 09:39:59;;;;;;;6.00;4.70;;;7.90;35.70;;;;;;5120454;27;20054;-72
2021/11/05 09:42:27;;;;;;;6.18;4.95;;;7.90;36.20;;;;;;5117910;27;20062;-72
2021/11/05 09:44:55;;;;;;;6.28;4.78;;;7.90;35.10;;;;;;5113771;27;20043;-73
2021/11/05 09:47:27;;;;;;;6.18;5.00;;;7.80;35.20;;;;;;5096079;27;20749;-72
2021/11/05 09:49:56;;;;;;;7.93;5.60;;;7.80;33.50;;;;;;5119054;27;20061;-72
2021/11/05 09:52:29;;;;;;;7.45;5.20;;;7.90;34.40;;;;;;5121028;27;20054;-71
2021/11/05 09:54:59;;;;;;;7.28;5.22;;;8.00;31.80;;;;;;5119101;27;20043;-72
2021/11/05 09:57:29;;;;;;;8.57;5.32;;;7.90;31.40;;;;;;5114005;27;20096;-71
2021/11/05 09:59:58;;;;;;;7.43;5.25;;;7.90;30.20;;;;;;5118012;27;20120;-72
2021/11/05 10:02:30;;;;;;;6.45;5.40;;;8.00;32.00;;;;;;5118512;27;20051;-71
2021/11/05 10:05:00;;;;;;;9.20;6.15;;;8.20;33.60;;;;;;5116643;27;20039;-73
2021/11/05 10:07:32;;;;;;;7.68;5.25;;;8.20;31.90;;;;;;5119721;27;20051;-72
2021/11/05 10:10:06;;;;;;;8.52;5.65;;;8.30;31.40;;;;;;5111943;27;20529;-72
2021/11/05 10:12:34;;;;;;;8.10;5.47;;;8.40;29.80;;;;;;5116484;27;20101;-72
2021/11/05 10:15:06;;;;;;;6.70;5.28;;;8.40;30.10;;;;;;5114977;27;20385;-73
2021/11/05 10:17:36;;;;;;;8.90;5.35;;;8.30;28.80;;;;;;5112883;27;20234;-71
2021/11/05 10:20:07;;;;;;;7.60;5.20;;;8.30;31.00;;;;;;5121255;27;20039;-71
2021/11/05 10:22:46;;;;;;;7.88;5.65;;;8.30;30.70;;;;;;5117723;27;20055;-71
2021/11/05 10:25:24;;;;;;;8.80;6.57;;;8.20;29.10;;;;;;5113487;27;20157;-71
2021/11/05 10:28:14;;;;;;;8.25;5.72;;;8.40;30.20;;;;;;5120162;27;20047;-72
2021/11/05 10:31:01;;;;;;;7.30;5.63;;;8.30;28.50;;;;;;5116608;27;20412;-72
2021/11/05 10:33:38;;;;;;;10.20;5.65;;;8.20;25.90;;;;;;5104182;27;20055;-72
2021/11/05 10:36:10;;;;;;;9.57;6.97;;;8.50;28.20;;;;;;5111735;27;20055;-72
2021/11/05 10:38:41;;;;;;;10.02;7.20;;;8.50;25.30;;;;;;5095196;27;20361;-71
2021/11/05 10:41:15;;;;;;;9.20;6.60;;;8.60;25.10;;;;;;5115563;27;20147;-72
2021/11/05 10:43:46;;;;;;;7.63;5.57;;;8.70;26.00;;;;;;5114765;27;20074;-71
2021/11/05 10:46:30;;;;;;;9.93;6.70;;;8.40;26.30;;;;;;5117205;27;20142;-72
2021/11/05 10:49:06;;;;;;;8.82;5.80;;;8.40;26.40;;;;;;5114551;27;20497;-72
2021/11/05 10:51:36;;;;;;;9.45;6.60;;;8.50;26.30;;;;;;5116755;27;20066;-72
2021/11/05 10:54:06;;;;;;;9.63;6.53;;;8.60;27.60;;;;;;5119733;27;20057;-72
2021/11/05 10:56:34;;;;;;;8.52;6.47;;;8.70;26.30;;;;;;5116944;27;20043;-72
2021/11/05 10:59:06;;;;;;;8.02;5.72;;;8.70;26.50;;;;;;5116816;27;20058;-71
2021/11/05 11:01:42;;;;;;;8.18;6.18;;;8.80;23.80;;;;;;5115200;27;20100;-72
2021/11/05 11:04:14;;;;;;;19.60;14.25;;;8.60;22.90;;;;;;5114273;27;20067;-71
2021/11/05 11:06:47;;;;;;;8.38;6.00;;;8.80;24.40;;;;;;5123073;27;20126;-72
2021/11/05 11:09:19;;;;;;;8.45;6.13;;;8.70;22.00;;;;;;5119427;27;20062;-72
2021/11/05 11:11:48;;;;;;;9.45;6.18;;;8.60;21.90;;;;;;5116182;27;20043;-71
2021/11/05 11:14:20;;;;;;;8.68;6.68;;;8.90;22.10;;;;;;5100413;27;20107;-71
2021/11/05 11:17:00;;;;;;;10.55;6.80;;;8.80;20.90;;;;;;5116976;27;20063;-71
2021/11/05 11:19:36;;;;;;;12.15;7.20;;;9.00;22.10;;;;;;5112591;27;20073;-71
2021/11/05 11:22:10;;;;;;;8.50;6.25;;;9.30;20.70;;;;;;5071833;27;20100;-71
2021/11/05 11:24:46;;;;;;;9.80;6.70;;;8.90;13.10;;;;;;5106945;27;20078;-71
2021/11/05 11:27:26;;;;;;;9.43;7.15;;;8.90;16.00;;;;;;5120768;27;20050;-72
2021/11/05 11:29:54;;;;;;;10.07;7.05;;;9.10;18.70;;;;;;5088187;27;20447;-71
2021/11/05 11:32:26;;;;;;;8.85;6.50;;;9.50;19.60;;;;;;5115420;27;20035;-72
2021/11/05 11:34:57;;;;;;;8.32;6.13;;;9.50;14.10;;;;;;5113887;27;20047;-71
2021/11/05 11:37:30;;;;;;;7.68;5.38;;;9.50;11.90;;;;;;5116298;27;20050;-73
2021/11/05 11:40:04;;;;;;;9.07;6.03;;;9.60;9.60;;;;;;5104132;27;20043;-71
2021/11/05 11:42:35;;;;;;;7.05;5.38;;;9.80;8.40;;;;;;5117254;27;20050;-72
2021/11/05 11:45:08;;;;;;;9.02;5.15;;;9.50;8.20;;;;;;5110761;27;20133;-72
2021/11/05 11:47:42;;;;;;;8.23;5.82;;;9.40;8.00;;;;;;5112551;27;20044;-71
2021/11/05 11:50:26;;;;;;;7.75;5.50;;;9.30;8.10;;;;;;5117018;27;20542;-71
2021/11/05 11:53:00;;;;;;;6.93;5.55;;;9.40;7.90;;;;;;5114641;28;20039;-71
2021/11/05 11:55:29;;;;;;;7.22;5.55;;;9.30;7.10;;;;;;5113463;28;20070;-73
2021/11/05 11:58:14;;;;;;;8.00;5.80;;;9.20;6.40;;;;;;5119180;27;20047;-72
2021/11/05 12:00:44;;;;;;;6.93;5.43;;;9.30;7.50;;;;;;5100893;27;20554;-71
2021/11/05 12:03:21;;;;;;;6.97;5.68;;;9.50;5.90;;;;;;5119747;27;20288;-72
2021/11/05 12:06:00;;;;;;;7.50;5.82;;;9.30;6.00;;;;;;5117730;27;20412;-72
2021/11/05 12:08:42;;;;;;;11.75;6.57;;;9.30;6.10;;;;;;5103721;28;20465;-71
2021/11/05 12:11:25;;;;;;;9.13;6.50;;;9.40;6.20;;;;;;5123235;27;20127;-72
2021/11/05 12:14:08;;;;;;;9.80;6.75;;;9.50;7.40;;;;;;5079429;27;20051;-71
2021/11/05 12:16:39;;;;;;;11.02;7.05;;;9.50;9.40;;;;;;5119602;27;20135;-72
2021/11/05 12:19:18;;;;;;;9.52;6.95;;;9.50;8.40;;;;;;5115098;27;20075;-72
2021/11/05 12:22:10;;;;;;;10.88;6.97;;;9.30;8.50;;;;;;5104403;27;20039;-71
2021/11/05 12:24:42;;;;;;;8.75;6.43;;;9.40;9.70;;;;;;5124232;27;20691;-71
2021/11/05 12:27:16;;;;;;;9.00;6.22;;;9.10;9.30;;;;;;5090129;27;20047;-72
2021/11/05 12:29:57;;;;;;;7.97;5.80;;;9.00;8.60;;;;;;5132517;27;20096;-72
2021/11/05 12:32:34;;;;;;;10.88;7.18;;;9.00;7.90;;;;;;5121433;27;20123;-71
2021/11/05 12:35:26;;;;;;;9.30;6.50;;;9.10;10.90;;;;;;5109627;27;20054;-72
2021/11/05 12:38:11;;;;;;;9.77;6.68;;;9.10;11.60;;;;;;5118337;27;20055;-71
2021/11/05 12:40:44;;;;;;;10.65;7.70;;;8.90;13.60;;;;;;5124133;27;20154;-71
2021/11/05 12:43:41;;;;;;;12.85;7.95;;;8.90;15.00;;;;;;5114363;27;20126;-72
2021/11/05 12:46:16;;;;;;;11.48;8.25;;;9.00;16.00;;;;;;5112528;27;20502;-72
2021/11/05 12:48:59;;;;;;;12.35;8.55;;;8.90;13.60;;;;;;5122421;27;20126;-72
2021/11/05 12:51:42;;;;;;;13.35;8.73;;;8.80;15.50;;;;;;5118557;27;20067;-72
2021/11/05 12:54:19;;;;;;;11.75;8.27;;;8.70;14.90;;;;;;5116051;27;20043;-72
2021/11/05 12:56:55;;;;;;;13.45;8.88;;;8.80;16.50;;;;;;5123805;27;20035;-72
2021/11/05 12:59:28;;;;;;;12.80;8.23;;;8.80;16.10;;;;;;5088392;28;20556;-72
2021/11/05 13:01:59;;;;;;;15.40;9.27;;;8.80;15.10;;;;;;5124888;27;20051;-72
2021/11/05 13:04:30;;;;;;;12.93;8.77;;;8.90;16.10;;;;;;5125019;27;20154;-72
2021/11/05 13:07:04;;;;;;;12.13;9.07;;;8.90;15.10;;;;;;5116015;27;20038;-72
2021/11/05 13:09:40;;;;;;;12.70;8.80;;;9.00;16.60;;;;;;5119118;27;20096;-72
2021/11/05 13:12:13;;;;;;;12.13;8.77;;;9.00;15.10;;;;;;5121833;27;20059;-71
2021/11/05 13:14:49;;;;;;;14.93;9.02;;;9.10;14.40;;;;;;5117011;27;20042;-72
2021/11/05 13:17:20;;;;;;;12.88;8.57;;;9.10;14.70;;;;;;5119226;27;20407;-71
2021/11/05 13:19:56;;;;;;;14.45;8.65;;;9.00;14.80;;;;;;5127078;27;20043;-72